Latest Weather Observations for Mount Hotham Airport

IDV60801

Issued at 2:35 pm EST Wednesday 3 September 2014 (issued every 30 minutes, with the page automatically refreshed every 10 minutes)

About weather observations | Map of weather stations | Latest weather observations for VIC | Other Formats
Station Details ID: 083055 Name: MOUNT HOTHAM AIRPORT Lat: -37.05 Lon: 147.33 Height: 1295.4 m
Data from the previous 72 hours. | See also: Recent months at Mount Hotham Airport
Date/Time
EST
Temp
°C
App
Temp
°C
Dew
Point
Rel
Hum
%
Delta-T
°C
Wind Press
QNH
hPa
Press
MSL
hPa
Rain
since 9 am
mm
Dir
 
Spd
km/h
Gust
km/h
Spd
kts
Gust
kts
03/02:30pm 3.9 -1.0 -0.3 74 1.7 SSE 15 22 8 12 1017.2 - 0.0
03/02:00pm 2.7 -2.6 -0.4 80 1.2 SSE 17 28 9 15 1017.2 - 0.0
03/01:30pm 2.3 -2.2 -0.4 82 1.1 SSE 13 19 7 10 1017.3 - 0.0
03/01:00pm 2.2 -3.5 -0.5 82 1.1 S 19 32 10 17 1017.4 - 0.0
03/12:30pm 2.3 -2.2 -0.4 82 1.1 S 13 19 7 10 1018.0 - 0.0
03/12:00pm 1.6 -3.4 -1.3 81 1.1 S 15 26 8 14 1018.2 1020.5 0.0
03/11:30am 1.3 -3.8 -1.6 81 1.1 S 15 28 8 15 1018.6 - 0.0
03/11:00am 0.8 -4.3 -1.8 83 1.0 SSW 15 22 8 12 1018.8 - 0.0
03/10:30am 0.9 -5.1 -1.3 85 0.8 SSW 20 24 11 13 1019.1 - 0.0
03/10:00am 0.4 -4.2 -1.0 90 0.6 SSE 13 20 7 11 1019.0 - 0.0
03/09:30am -0.4 -5.5 -1.7 91 0.5 S 15 28 8 15 1019.0 - 0.0
03/09:00am -0.4 -5.1 -1.5 92 0.4 S 13 20 7 11 1019.0 1021.3 7.0
03/08:30am -0.4 -6.2 -1.7 91 0.5 S 19 30 10 16 1018.8 - 7.0
03/08:00am -0.6 -6.6 -1.6 93 0.3 S 20 30 11 16 1018.7 - 7.0
03/07:30am -1.1 -6.6 -1.8 95 0.2 S 17 30 9 16 1018.7 - 7.0
03/07:00am -1.2 -7.2 -1.6 97 0.1 S 20 32 11 17 1018.5 - 7.0
03/06:55am -1.1 -7.1 -1.4 98 0.1 S 20 32 11 17 1018.4 - 7.0
03/06:31am -1.1 -6.9 -1.2 99 0.0 S 19 32 10 17 1018.2 - 7.0
03/06:30am -1.0 -6.9 -1.1 99 0.0 S 20 32 11 17 1018.2 - 7.0
03/06:21am -1.1 -6.9 -1.2 99 0.0 S 19 33 10 18 1018.2 - 7.0
03/06:00am -0.9 -5.5 -1.0 99 0.0 S 13 30 7 16 1017.9 1020.1 6.8
03/05:46am -0.9 -6.3 -1.0 99 0.0 S 17 32 9 17 1017.8 - 6.6
03/05:42am -1.0 -6.4 -1.1 99 0.0 S 17 32 9 17 1017.8 - 6.6
03/05:30am -1.0 -6.4 -1.1 99 0.0 S 17 22 9 12 1017.8 - 6.6
03/05:00am -1.1 -5.4 -1.4 98 0.1 SSW 11 19 6 10 1017.4 - 6.2
03/04:54am -1.2 -5.5 -1.5 98 0.1 SSW 11 19 6 10 1017.4 - 6.2
03/04:30am -1.3 -6.4 -1.6 98 0.0 S 15 20 8 11 1017.2 - 6.2
03/04:00am -1.1 -5.7 -1.4 98 0.1 S 13 22 7 12 1017.3 - 6.2
03/03:33am -1.2 -5.9 -1.5 98 0.1 S 13 22 7 12 1017.0 - 6.2
03/03:30am -1.2 -5.9 -1.5 98 0.1 SSW 13 22 7 12 1017.0 - 6.2
03/03:03am -1.3 -6.0 -1.7 97 0.1 SSW 13 22 7 12 1016.9 - 6.2
03/03:00am -1.2 -5.9 -1.6 97 0.1 SSW 13 22 7 12 1016.9 1019.1 6.2
03/02:30am -1.2 -6.6 -1.5 98 0.1 SSW 17 32 9 17 1017.3 - 6.2
03/02:23am -1.2 -6.2 -1.5 98 0.1 S 15 26 8 14 1017.3 - 6.2
03/02:00am -1.3 -5.2 -1.7 97 0.1 S 9 17 5 9 1017.4 - 6.0
03/01:30am -1.4 -6.5 -2.0 96 0.2 S 15 26 8 14 1017.9 - 6.0
03/01:00am -1.5 -6.2 -2.1 96 0.1 S 13 20 7 11 1018.0 - 6.0
03/12:30am -1.7 -7.2 -2.3 96 0.1 SSW 17 24 9 13 1018.0 - 6.0
03/12:00am -1.8 -7.3 -2.2 97 0.1 S 17 22 9 12 1018.0 1020.3 6.0
 
Date/Time
EST
Temp
°C
App
Temp
°C
Dew
Point
Rel
Hum
%
Delta-T
°C
Wind Press
QNH
hPa
Press
MSL
hPa
Rain
since 9 am
mm
Dir
 
Spd
km/h
Gust
km/h
Spd
kts
Gust
kts
02/11:30pm -1.6 -6.7 -2.0 97 0.1 S 15 24 8 13 1018.0 - 6.0
02/11:00pm -1.5 -6.6 -1.6 99 0.0 S 15 22 8 12 1017.8 - 6.0
02/10:30pm -1.0 -5.6 -1.1 99 0.0 S 13 22 7 12 1017.9 - 6.0
02/10:00pm -0.9 -5.5 -1.0 99 0.0 S 13 20 7 11 1018.0 - 5.8
02/09:30pm -1.2 -6.2 -1.3 99 0.0 S 15 26 8 14 1017.7 - 5.8
02/09:00pm -1.2 -7.2 -1.3 99 0.0 S 20 30 11 16 1017.7 1019.9 5.8
02/08:30pm -0.8 -6.7 -0.9 99 0.0 S 20 33 11 18 1017.6 - 5.8
02/08:00pm -0.6 -5.9 -0.7 99 0.0 S 17 26 9 14 1017.2 - 5.8
02/07:52pm -0.7 -6.4 -0.8 99 0.0 S 19 30 10 16 1017.2 - 5.6
02/07:30pm -0.5 -5.8 -0.6 99 0.0 S 17 30 9 16 1017.2 - 5.2
02/07:07pm -0.5 -6.7 -0.6 99 0.0 S 22 33 12 18 1016.9 - 4.8
02/07:00pm -0.7 -6.6 -0.8 99 0.0 S 20 39 11 21 1016.8 - 4.8
02/06:35pm -0.6 -6.3 -0.7 99 0.0 S 19 35 10 19 1016.7 - 4.8
02/06:30pm -0.5 -6.2 -0.6 99 0.0 S 19 32 10 17 1016.7 - 4.6
02/06:00pm -0.3 -6.0 -0.4 99 0.0 S 19 30 10 16 1016.3 1018.5 4.2
02/05:30pm -0.2 -6.4 -0.3 99 0.0 S 22 35 12 19 1015.9 - 3.4
02/05:00pm -0.3 -5.6 -0.4 99 0.0 S 17 26 9 14 1015.4 - 3.2
02/04:30pm -0.2 -6.0 -0.3 99 0.0 SSW 20 32 11 17 1015.1 - 3.0
02/04:29pm -0.2 -6.0 -0.3 99 0.0 SSW 20 32 11 17 1015.1 - 3.0
02/04:01pm -0.2 -6.8 -0.3 99 0.0 S 24 37 13 20 1014.7 - 3.0
02/04:00pm -0.3 -7.3 -0.4 99 0.0 SSW 26 37 14 20 1014.7 - 3.0
02/03:30pm -0.3 -7.3 -0.4 99 0.0 SSW 26 41 14 22 1014.6 - 2.8
02/03:00pm 0.4 -5.3 0.3 99 0.0 SSW 20 35 11 19 1014.2 1016.3 2.4
02/02:30pm 0.4 -4.8 0.3 99 0.0 SSW 17 26 9 14 1013.7 - 2.2
02/02:28pm 0.4 -4.8 0.3 99 0.0 SSW 17 26 9 14 1013.7 - 2.2
02/02:05pm 0.1 -5.1 0.0 99 0.0 SSW 17 28 9 15 1013.6 - 2.0
02/02:00pm 0.2 -4.6 0.1 99 0.0 SSW 15 24 8 13 1013.7 - 2.0
02/01:30pm -0.2 -6.0 -0.3 99 0.0 SSW 20 28 11 15 1013.6 - 1.8
02/01:00pm -0.4 -6.1 -0.5 99 0.0 S 19 28 10 15 1013.6 - 1.6
02/12:30pm 0.1 -7.6 -0.3 97 0.2 SSE 30 37 16 20 1013.5 - 1.2
02/12:25pm 0.6 -5.6 -0.1 95 0.3 S 22 41 12 22 1013.5 - 1.2
02/12:00pm 1.8 -4.7 0.5 91 0.5 S 24 37 13 20 1013.1 1015.2 1.0
02/11:52am 2.3 -4.1 0.8 90 0.6 SSW 24 39 13 21 1013.0 - 1.0
02/11:37am 0.9 -4.3 0.0 94 0.4 S 17 28 9 15 1013.2 - 0.8
02/11:30am 1.7 -3.1 0.5 92 0.5 S 15 26 8 14 1013.1 - 0.4
02/11:00am 1.7 -3.3 1.1 96 0.2 SSW 17 28 9 15 1013.4 - 0.4
02/10:36am 1.4 -3.2 1.3 99 0.0 SSW 15 24 8 13 1013.2 - 0.4
02/10:30am 1.1 -4.3 1.0 99 0.0 SSW 19 32 10 17 1013.4 - 0.4
02/10:10am 0.4 -4.8 0.1 98 0.1 S 17 30 9 16 1013.4 - 0.4
02/10:08am 0.5 -5.1 0.2 98 0.1 S 19 33 10 18 1013.4 - 0.4
02/10:00am 0.6 -4.5 0.5 99 0.0 S 17 33 9 18 1013.1 - 0.4
02/09:42am 0.7 -5.1 0.1 96 0.2 S 20 32 11 17 1012.9 - 0.2
02/09:31am 1.1 -4.4 0.8 98 0.1 S 19 30 10 16 1012.9 - 0.2
02/09:30am 1.1 -4.4 0.8 98 0.1 S 19 30 10 16 1013.0 - 0.2
02/09:03am 0.8 -4.0 0.1 95 0.3 S 15 26 8 14 1012.7 - 0.0
02/09:00am 0.8 -4.4 -0.1 94 0.4 SSW 17 26 9 14 1012.7 1014.8 7.4
02/08:30am 0.7 -4.5 0.3 97 0.2 S 17 26 9 14 1012.7 - 7.4
02/08:00am 0.5 -4.7 0.4 99 0.0 S 17 28 9 15 1012.3 - 7.4
02/07:30am 0.4 -3.6 0.3 99 0.0 S 11 19 6 10 1012.0 - 7.4
02/07:00am 0.3 -3.7 0.2 99 0.0 S 11 24 6 13 1011.5 - 7.4
02/06:45am 0.3 -3.7 0.2 99 0.0 S 11 17 6 9 1011.5 - 7.4
02/06:30am 0.2 -3.5 0.1 99 0.0 S 9 20 5 11 1011.3 - 7.4
02/06:27am 0.2 -3.9 0.1 99 0.0 SSW 11 20 6 11 1011.3 - 7.4
02/06:00am 0.2 -4.6 0.1 99 0.0 S 15 26 8 14 1011.0 1013.0 7.2
02/05:48am 0.1 -4.4 0.0 99 0.0 S 13 20 7 11 1011.0 - 7.2
02/05:30am 0.1 -4.0 0.0 99 0.0 S 11 20 6 11 1010.6 - 7.2
02/05:00am 0.2 -4.2 0.1 99 0.0 S 13 20 7 11 1010.3 - 6.2
02/04:49am 0.5 -4.3 0.4 99 0.0 SSW 15 20 8 11 1010.1 - 5.6
02/04:30am 0.8 -3.9 0.7 99 0.0 S 15 28 8 15 1009.8 - 5.6
02/04:00am 0.9 -3.4 0.8 99 0.0 S 13 22 7 12 1010.1 - 5.6
02/03:30am 0.8 -3.5 0.7 99 0.0 S 13 22 7 12 1010.0 - 5.4
02/03:00am 1.1 -2.9 0.7 97 0.2 SSW 11 19 6 10 1009.8 1011.8 5.0
02/02:30am 1.3 -3.0 0.9 97 0.2 SSW 13 20 7 11 1009.7 - 5.0
02/02:00am 1.3 -3.0 1.2 99 0.0 SSW 13 19 7 10 1009.7 - 5.0
02/01:30am 1.2 -2.7 1.1 99 0.0 SW 11 17 6 9 1009.7 - 5.0
02/01:05am 0.9 -3.1 0.8 99 0.0 SSW 11 17 6 9 1010.0 - 4.8
02/01:00am 0.9 -3.1 0.8 99 0.0 SSW 11 17 6 9 1010.0 - 4.8
02/12:46am 1.0 -3.3 0.9 99 0.0 SSW 13 17 7 9 1010.0 - 4.6
02/12:30am 1.5 -2.8 1.2 98 0.1 SSW 13 19 7 10 1009.7 - 4.0
02/12:00am 2.0 -1.5 1.4 96 0.3 SSW 9 13 5 7 1009.6 1011.6 3.6
 
Date/Time
EST
Temp
°C
App
Temp
°C
Dew
Point
Rel
Hum
%
Delta-T
°C
Wind Press
QNH
hPa
Press
MSL
hPa
Rain
since 9 am
mm
Dir
 
Spd
km/h
Gust
km/h
Spd
kts
Gust
kts
01/11:30pm 2.2 -1.3 1.5 95 0.3 W 9 13 5 7 1009.6 - 3.6
01/11:00pm 2.3 -1.2 1.4 94 0.4 W 9 17 5 9 1009.6 - 3.6
01/10:30pm 2.5 -1.3 1.5 93 0.4 W 11 19 6 10 1009.5 - 3.6
01/10:00pm 2.6 0.1 1.7 94 0.4 W 4 7 2 4 1009.6 - 3.6
01/09:30pm 3.0 0.0 2.1 94 0.4 SW 7 11 4 6 1009.5 - 3.6
01/09:00pm 3.2 -1.7 2.0 92 0.5 WNW 17 24 9 13 1009.6 1011.6 3.6
01/08:30pm 3.5 -0.6 2.5 93 0.4 NW 13 20 7 11 1009.6 - 3.4
01/08:00pm 3.8 1.1 2.8 93 0.4 W 6 13 3 7 1009.5 - 2.6
01/07:30pm 3.9 1.2 2.4 90 0.7 WSW 6 11 3 6 1009.5 - 2.2
01/07:00pm 3.9 0.6 2.3 89 0.7 W 9 20 5 11 1009.4 - 1.6
01/06:30pm 4.1 1.2 2.5 89 0.7 WNW 7 20 4 11 1009.4 - 1.0
01/06:00pm 4.1 0.0 2.1 87 0.9 NNW 13 26 7 14 1009.5 1011.5 0.4
01/05:30pm 4.7 1.7 1.7 81 1.3 W 7 13 4 7 1009.1 - 0.0
01/05:00pm 5.8 1.1 1.2 72 2.0 NW 15 30 8 16 1008.8 - 0.0
01/04:30pm 7.0 3.4 0.7 64 2.7 WSW 9 13 5 7 1008.8 - 0.0
01/04:00pm 7.2 2.3 1.7 68 2.4 NNW 17 33 9 18 1008.6 - 0.0
01/03:30pm 7.4 0.4 1.9 68 2.4 NW 28 43 15 23 1008.7 - 0.0
01/03:11pm 7.8 0.6 1.0 62 3.0 NW 28 52 15 28 1008.8 - 0.0
01/03:00pm 9.1 2.6 0.6 55 3.7 NW 24 39 13 21 1008.7 1010.7 0.0
01/02:30pm 10.4 5.2 0.4 50 4.4 NW 17 35 9 19 1008.7 - 0.0
01/02:00pm 10.7 6.3 0.2 48 4.6 N 13 32 7 17 1008.6 - 0.0
01/01:30pm 11.0 5.2 -0.2 46 4.9 NNW 20 44 11 24 1008.9 - 0.0
01/01:00pm 10.9 3.2 0.0 47 4.8 NW 30 54 16 29 1009.6 - 0.0
01/12:30pm 10.1 2.1 0.4 51 4.3 N 32 57 17 31 1010.0 - 0.0
01/12:00pm 11.3 2.7 0.4 47 4.9 NNW 35 57 19 31 1010.5 1012.5 0.0
01/11:48am 11.2 2.9 0.0 46 4.9 NW 33 52 18 28 1010.6 - 0.0
01/11:45am 11.3 2.3 0.4 47 4.9 NW 37 52 20 28 1010.8 - 0.0
01/11:34am 12.2 5.0 0.9 46 5.1 N 28 48 15 26 1011.0 - 0.0
01/11:30am 11.4 4.0 -0.4 44 5.2 N 28 43 15 23 1011.0 - 0.0
01/11:03am 11.1 3.5 0.5 48 4.7 N 30 52 16 28 1011.7 - 0.0
01/11:00am 11.8 4.2 0.6 46 5.0 N 30 43 16 23 1011.5 - 0.0
01/10:30am 9.4 2.6 1.1 56 3.7 N 26 44 14 24 1012.0 - 0.0
01/10:00am 9.5 3.1 0.9 55 3.8 NNW 24 37 13 20 1012.7 - 0.0
01/09:30am 9.7 2.6 1.1 55 3.8 N 28 39 15 21 1012.8 - 0.0
01/09:00am 8.5 1.0 1.0 59 3.3 NNW 30 43 16 23 1013.9 1016.1 0.0
01/08:30am 6.8 0.4 1.1 67 2.5 NNW 24 39 13 21 1014.2 - 0.0
01/08:00am 6.9 -0.3 1.0 66 2.6 NW 28 37 15 20 1014.4 - 0.0
01/07:30am 6.7 -0.8 1.0 67 2.5 NW 30 41 16 22 1014.3 - 0.0
01/07:07am 6.6 -1.5 0.9 67 2.5 NW 33 52 18 28 1014.0 - 0.0
01/07:00am 6.7 -1.8 0.8 66 2.5 NW 35 52 19 28 1013.9 - 0.0
01/06:30am 7.1 -1.9 0.1 61 3.0 NW 37 57 20 31 1013.7 - 0.0
01/06:00am 7.4 -0.7 -0.1 59 3.2 NW 32 50 17 27 1013.7 1015.8 0.0
01/05:30am 7.5 -1.2 -0.2 58 3.3 NW 35 59 19 32 1013.5 - 0.0
01/05:00am 7.7 0.0 0.0 58 3.3 NW 30 48 16 26 1013.6 - 0.0
01/04:30am 7.7 0.0 0.0 58 3.3 NNW 30 50 16 27 1013.6 - 0.0
01/04:00am 7.1 0.2 0.1 61 3.0 NNW 26 44 14 24 1013.7 - 0.0
01/03:37am 7.3 0.0 0.1 60 3.1 NW 28 48 15 26 1014.0 - 0.0
01/03:30am 6.9 0.8 0.1 62 2.9 NW 22 37 12 20 1014.0 - 0.0
01/03:00am 6.0 1.5 -0.1 65 2.6 NW 13 24 7 13 1014.3 1016.4 0.0
01/02:30am 5.4 1.4 0.4 70 2.1 WNW 11 15 6 8 1014.6 - 0.0
01/02:00am 5.9 1.5 0.5 68 2.3 WNW 13 19 7 10 1014.9 - 0.0
01/01:30am 5.1 0.4 0.9 74 1.8 NW 15 20 8 11 1015.2 - 0.0
01/01:00am 5.2 0.7 2.2 81 1.3 NW 15 20 8 11 1015.5 - 0.0
01/12:30am 4.9 1.6 2.6 85 1.0 N 9 13 5 7 1015.7 - 0.0
01/12:00am 4.0 0.6 1.9 86 0.9 N 9 11 5 6 1016.3 1018.5 0.0
 
Date/Time
EST
Temp
°C
App
Temp
°C
Dew
Point
Rel
Hum
%
Delta-T
°C
Wind Press
QNH
hPa
Press
MSL
hPa
Rain
since 9 am
mm
Dir
 
Spd
km/h
Gust
km/h
Spd
kts
Gust
kts
31/11:30pm 5.1 1.4 2.3 82 1.2 N 11 15 6 8 1016.7 - 0.0
31/11:00pm 5.3 0.9 2.5 82 1.2 N 15 19 8 10 1016.9 - 0.0
31/10:30pm 4.3 0.7 2.8 90 0.7 NNW 11 15 6 8 1017.2 - 0.0
31/10:00pm 4.6 1.4 2.9 89 0.8 N 9 13 5 7 1017.4 - 0.0
31/09:30pm 3.7 1.7 2.4 91 0.6 ENE 2 4 1 2 1017.9 - 0.0
31/09:00pm 3.7 0.3 1.9 88 0.8 N 9 13 5 7 1017.9 1021.2 0.0
31/08:30pm 5.9 1.2 3.2 83 1.2 NW 17 22 9 12 1018.1 - 0.0
31/08:00pm 4.7 0.7 2.7 87 0.9 WNW 13 19 7 10 1018.1 - 0.0
31/07:30pm 5.6 0.9 3.3 85 1.0 WNW 17 22 9 12 1018.1 - 0.0
31/07:00pm 5.9 1.6 3.2 83 1.2 NW 15 20 8 11 1018.1 - 0.0
31/06:30pm 5.8 2.4 2.1 77 1.6 NW 9 15 5 8 1018.1 - 0.0
31/06:00pm 6.8 1.9 1.9 71 2.2 WNW 17 22 9 12 1017.8 1021.1 0.0
31/05:30pm 8.3 2.8 2.1 65 2.8 NW 20 26 11 14 1017.8 - 0.0
31/05:00pm 10.2 5.3 1.8 56 3.8 NW 17 22 9 12 1017.7 - 0.0
31/04:30pm 11.5 7.7 1.5 50 4.6 WNW 11 17 6 9 1017.4 - 0.0
31/04:00pm 12.6 9.2 1.6 47 5.1 W 9 17 5 9 1017.4 - 0.0
31/03:30pm 12.9 8.3 1.3 45 5.3 WNW 15 22 8 12 1017.6 - 0.0
31/03:00pm 12.8 9.7 1.5 46 5.2 N 7 19 4 10 1017.7 1021.0 0.0

Other Formats:

Comma delimited format used in spreadsheet applications
http://www.bom.gov.au/fwo/IDV60801/IDV60801.94905.axf

JavaScript Object Notation format (JSON) in row-major order
http://www.bom.gov.au/fwo/IDV60801/IDV60801.94905.json